createdAt,value
2022-09-24T00:12:16.550Z,6.7
2022-09-24T00:27:25.652Z,6.1
2022-09-24T00:42:35.618Z,5.5
2022-09-24T00:57:44.501Z,5.9
2022-09-24T01:12:56.109Z,6.9
2022-09-24T01:28:05.915Z,6.6
2022-09-24T01:43:15.233Z,8.8
2022-09-24T01:58:25.100Z,8.4
2022-09-24T02:13:34.507Z,9.7
2022-09-24T02:28:43.946Z,10.1
2022-09-24T02:43:56.306Z,11.2
2022-09-24T02:59:05.937Z,11.6
2022-09-24T03:14:15.339Z,10.7
2022-09-24T03:29:25.105Z,11.8
2022-09-24T03:44:34.942Z,12.9
2022-09-24T03:59:44.776Z,14
2022-09-24T04:14:55.927Z,14.9
2022-09-24T04:30:05.267Z,15.6
2022-09-24T04:45:15.238Z,16.4
2022-09-24T05:00:24.816Z,15.4
2022-09-24T05:15:34.324Z,16.3
2022-09-24T05:30:52.516Z,15.8
2022-09-24T05:46:02.346Z,16.8
2022-09-24T06:01:12.438Z,17.6
2022-09-24T06:16:22.085Z,13.6
2022-09-24T06:31:33.020Z,14.9
2022-09-24T06:46:43.073Z,14.3
2022-09-24T07:01:56.788Z,14.7
2022-09-24T07:17:06.633Z,14.3
2022-09-24T07:32:16.750Z,13.4
2022-09-24T07:47:26.224Z,14.3
2022-09-24T08:02:36.064Z,15.4
2022-09-24T08:17:45.889Z,14.9
2022-09-24T08:32:56.247Z,15.2
2022-09-24T08:48:05.719Z,14.3
2022-09-24T09:03:15.313Z,15.1
2022-09-24T09:18:25.053Z,16.2
2022-09-24T09:33:35.017Z,15.1
2022-09-24T09:48:44.560Z,14
2022-09-24T10:03:56.096Z,14.3
2022-09-24T10:19:05.517Z,13.7
2022-09-24T10:34:15.665Z,14.5
2022-09-24T10:49:25.229Z,14.6
2022-09-24T11:04:39.192Z,15.3
2022-09-24T11:19:48.882Z,10.9
2022-09-24T11:34:58.488Z,12.1
2022-09-24T11:50:07.687Z,10.9
2022-09-24T12:05:17.433Z,11.4
2022-09-24T12:20:27.115Z,11
2022-09-24T12:38:19.921Z,12.9
2022-09-24T12:53:31.146Z,8.9
2022-09-24T13:08:40.519Z,9.2
2022-09-24T13:23:49.841Z,9.9
2022-09-24T13:38:59.143Z,11.1
2022-09-24T13:54:08.478Z,10.8
2022-09-24T14:09:18.313Z,11.3
2022-09-24T14:24:28.303Z,10.4
2022-09-24T14:39:38.549Z,12.3
2022-09-24T14:54:48.308Z,11.2
2022-09-24T15:09:57.693Z,11.7
2022-09-24T15:25:07.562Z,11.5
2022-09-24T15:40:17.060Z,11.6
2022-09-24T15:55:27.264Z,14.3
2022-09-24T16:10:36.723Z,15.3
2022-09-24T16:25:45.763Z,18.5
2022-09-24T16:40:57.782Z,17.1
2022-09-24T16:56:07.670Z,16.1
2022-09-24T17:11:17.256Z,16.9
2022-09-24T17:26:27.287Z,16.4
2022-09-24T17:41:36.970Z,18.8
2022-09-24T17:56:47.158Z,16.9
2022-09-24T18:11:56.617Z,18.2
2022-09-24T18:27:05.931Z,17.2
2022-09-24T18:42:15.558Z,18.4
2022-09-24T18:57:25.364Z,19.4
2022-09-24T19:12:34.812Z,19.6
2022-09-24T19:27:44.366Z,22.1
2022-09-24T19:42:57.497Z,30.6
2022-09-24T19:58:07.237Z,24.7
2022-09-24T20:13:16.342Z,23.6
2022-09-24T20:28:26.089Z,22
2022-09-24T20:43:35.434Z,24.4
2022-09-24T20:58:45.024Z,21.3
2022-09-24T21:13:55.006Z,19.2
2022-09-24T21:29:05.003Z,17.5
2022-09-24T21:44:14.442Z,15.3
2022-09-24T21:59:24.330Z,14.7
2022-09-24T22:14:33.505Z,15
2022-09-24T22:29:43.603Z,16.2
2022-09-24T22:44:53.214Z,21.4
2022-09-24T23:00:03.038Z,23.6
2022-09-24T23:15:12.130Z,19.4
2022-09-24T23:30:21.645Z,22.3
2022-09-24T23:45:30.836Z,22.1
